Mammoth, Pennsylvania
Current Conditions -  °F | °C
As of 9:50 AM on Saturday 25 Oct 2014 (Local Time) from KLBE Reporting Station
Broken Clouds Broken Clouds  
Wind Chill: 52°   Ceiling: 4000
Heat Index: 52°   Visibility: 10mi
Dew Point: 45°   Wind: 17mph
Humidity: 76%   Direction: 220°SW
Pressure: 29.97"   Gusts: NA
Location:  40.2°N, 79.46°W
Report Text: KLBE 251350Z 22015KT 10SM BKN040 11/07 A2997
Loading
Personal Weather Stations






























Interactive Weather Map
Tropical Storm Tracking
New forecast layout! Learn more

10-Day Weather Forecast

Advertisements
Track Severe Weather on mobile